createdAt,value
2018-05-02T00:01:50.685Z,5.90
2018-05-02T00:04:16.643Z,5.90
2018-05-02T00:06:42.590Z,5.90
2018-05-02T00:09:09.304Z,6.00
2018-05-02T00:11:35.254Z,6.00
2018-05-02T00:14:01.208Z,6.00
2018-05-02T00:16:27.931Z,6.00
2018-05-02T00:18:53.879Z,5.90
2018-05-02T00:21:19.834Z,5.90
2018-05-02T00:23:46.521Z,5.80
2018-05-02T00:26:12.471Z,5.80
2018-05-02T00:28:38.451Z,5.80
2018-05-02T00:31:05.215Z,5.80
2018-05-02T00:33:31.899Z,5.90
2018-05-02T00:35:57.886Z,5.80
2018-05-02T00:38:23.850Z,5.90
2018-05-02T00:40:49.832Z,5.90
2018-05-02T00:43:15.811Z,5.90
2018-05-02T00:45:42.535Z,5.90
2018-05-02T00:48:08.510Z,5.90
2018-05-02T00:50:34.483Z,5.90
2018-05-02T00:53:00.467Z,5.90
2018-05-02T00:55:27.186Z,5.80
2018-05-02T00:57:53.147Z,5.80
2018-05-02T01:00:19.863Z,5.90
2018-05-02T01:02:45.860Z,5.90
2018-05-02T01:05:11.827Z,6.00
2018-05-02T01:07:38.551Z,6.10
2018-05-02T01:10:04.530Z,6.10
2018-05-02T01:12:30.507Z,6.30
2018-05-02T01:14:56.487Z,6.40
2018-05-02T01:17:22.471Z,6.60
2018-05-02T01:19:48.442Z,6.70
2018-05-02T01:22:14.438Z,6.80
2018-05-02T01:24:41.155Z,7.00
2018-05-02T01:27:07.131Z,7.00
2018-05-02T01:29:33.169Z,7.10
2018-05-02T01:31:59.139Z,7.10
2018-05-02T01:34:25.103Z,7.10
2018-05-02T01:36:51.084Z,7.30
2018-05-02T01:39:17.047Z,7.30
2018-05-02T01:41:43.015Z,7.30
2018-05-02T01:44:09.727Z,7.30
2018-05-02T01:46:35.706Z,7.30
2018-05-02T01:49:14.922Z,7.30
2018-05-02T01:51:41.643Z,7.40
2018-05-02T01:54:07.608Z,7.40
2018-05-02T01:56:33.575Z,7.40
2018-05-02T01:59:00.279Z,7.40
2018-05-02T02:01:26.261Z,7.40
2018-05-02T02:03:52.975Z,7.40
2018-05-02T02:06:18.951Z,7.40
2018-05-02T02:08:45.664Z,7.40
2018-05-02T02:11:11.636Z,7.40
2018-05-02T02:13:37.594Z,7.40
2018-05-02T02:16:03.571Z,7.50
2018-05-02T02:18:29.544Z,7.50
2018-05-02T02:20:56.263Z,7.50
2018-05-02T02:23:22.247Z,7.50
2018-05-02T02:25:48.218Z,7.50
2018-05-02T02:28:14.191Z,7.50
2018-05-02T02:30:40.175Z,7.50
2018-05-02T02:33:06.154Z,7.50
2018-05-02T02:35:32.150Z,7.50
2018-05-02T02:37:58.235Z,7.50
2018-05-02T02:40:24.211Z,7.50
2018-05-02T02:42:50.198Z,7.50
2018-05-02T02:45:16.194Z,7.60
2018-05-02T02:47:42.162Z,7.50
2018-05-02T02:50:08.141Z,7.50
2018-05-02T02:52:34.122Z,7.50
2018-05-02T02:55:00.108Z,7.50
2018-05-02T02:57:26.105Z,7.60
2018-05-02T02:59:52.083Z,7.60
2018-05-02T03:02:18.073Z,7.50
2018-05-02T03:04:44.047Z,7.50
2018-05-02T03:07:10.031Z,7.40
2018-05-02T03:09:36.037Z,7.50
2018-05-02T03:12:02.027Z,7.50
2018-05-02T03:14:28.749Z,7.40
2018-05-02T03:16:54.739Z,7.40
2018-05-02T03:19:20.802Z,7.40
2018-05-02T03:21:46.836Z,7.40
2018-05-02T03:24:12.765Z,7.40
2018-05-02T03:26:38.759Z,7.40
2018-05-02T03:29:05.485Z,7.40
2018-05-02T03:31:31.464Z,7.30
2018-05-02T03:33:57.453Z,7.30
2018-05-02T03:36:23.434Z,7.40
2018-05-02T03:38:49.407Z,7.30
2018-05-02T03:41:15.375Z,7.40
2018-05-02T03:43:41.342Z,7.40
2018-05-02T03:46:07.371Z,7.40
2018-05-02T03:48:34.095Z,7.50
2018-05-02T03:51:01.544Z,7.40
2018-05-02T03:53:27.515Z,7.40
2018-05-02T03:55:54.225Z,7.30
2018-05-02T03:58:20.203Z,7.30
2018-05-02T04:00:59.177Z,7.40
2018-05-02T04:03:37.595Z,7.40
2018-05-02T04:06:12.810Z,7.40
2018-05-02T04:08:38.862Z,7.40
2018-05-02T04:11:05.579Z,7.30
2018-05-02T04:13:31.562Z,7.30
2018-05-02T04:15:58.267Z,7.20
2018-05-02T04:18:24.243Z,7.20
2018-05-02T04:20:50.950Z,7.10
2018-05-02T04:23:16.931Z,7.00
2018-05-02T04:25:43.687Z,7.10
2018-05-02T04:28:10.399Z,7.20
2018-05-02T04:30:37.127Z,7.30
2018-05-02T04:33:03.131Z,7.30
2018-05-02T04:35:29.125Z,7.40
2018-05-02T04:37:55.143Z,7.40
2018-05-02T04:40:21.087Z,7.40
2018-05-02T04:42:47.115Z,7.40
2018-05-02T04:45:13.091Z,7.50
2018-05-02T04:47:39.811Z,7.60
2018-05-02T04:50:05.798Z,7.60
2018-05-02T04:52:31.780Z,7.60
2018-05-02T04:54:57.774Z,7.70
2018-05-02T04:57:23.756Z,7.70
2018-05-02T04:59:49.735Z,7.80
2018-05-02T05:02:15.743Z,7.80
2018-05-02T05:04:41.722Z,7.80
2018-05-02T05:07:07.694Z,7.80
2018-05-02T05:09:33.679Z,7.80
2018-05-02T05:11:59.651Z,7.80
2018-05-02T05:14:25.626Z,7.80
2018-05-02T05:16:52.358Z,7.90
2018-05-02T05:19:18.330Z,7.90
2018-05-02T05:21:44.314Z,7.90
2018-05-02T05:24:10.297Z,7.90
2018-05-02T05:26:37.023Z,7.90
2018-05-02T05:29:03.000Z,7.90
2018-05-02T05:31:28.988Z,7.90
2018-05-02T05:33:54.972Z,7.90
2018-05-02T05:36:20.946Z,7.90
2018-05-02T05:38:46.938Z,7.90
2018-05-02T05:41:13.083Z,7.90
2018-05-02T05:43:39.114Z,7.90
2018-05-02T05:46:05.034Z,7.90
2018-05-02T05:48:30.998Z,8.00
2018-05-02T05:50:56.951Z,8.00
2018-05-02T05:53:22.919Z,8.00
2018-05-02T05:55:49.633Z,8.10
2018-05-02T05:58:15.602Z,8.10
2018-05-02T06:00:41.571Z,8.20
2018-05-02T06:03:07.539Z,8.30
2018-05-02T06:05:33.516Z,8.40
2018-05-02T06:08:00.231Z,8.50
2018-05-02T06:10:26.243Z,8.50
2018-05-02T06:12:52.215Z,8.60
2018-05-02T06:15:18.183Z,8.60
2018-05-02T06:17:44.895Z,8.60
2018-05-02T06:20:10.862Z,8.60
2018-05-02T06:22:37.574Z,8.60
2018-05-02T06:25:03.563Z,8.60
2018-05-02T06:27:29.547Z,8.60
2018-05-02T06:29:55.519Z,8.70
2018-05-02T06:32:22.236Z,8.90
2018-05-02T06:34:48.214Z,8.80
2018-05-02T06:37:14.197Z,8.80
2018-05-02T06:39:40.170Z,8.90
2018-05-02T06:42:06.911Z,9.00
2018-05-02T06:44:32.875Z,8.90
2018-05-02T06:46:58.868Z,9.00
2018-05-02T06:49:24.839Z,8.90
2018-05-02T06:51:50.807Z,9.00
2018-05-02T06:54:16.788Z,9.00
2018-05-02T06:56:42.748Z,9.00
2018-05-02T06:59:08.739Z,9.10
2018-05-02T07:01:34.711Z,9.20
2018-05-02T07:04:01.472Z,9.30
2018-05-02T07:06:27.443Z,9.30
2018-05-02T07:08:53.424Z,9.40
2018-05-02T07:11:20.123Z,9.40
2018-05-02T07:13:46.096Z,9.40
2018-05-02T07:16:12.054Z,9.30
2018-05-02T07:18:38.775Z,9.30
2018-05-02T07:21:04.739Z,9.30
2018-05-02T07:23:31.455Z,9.30
2018-05-02T07:25:57.423Z,9.30
2018-05-02T07:28:24.151Z,9.30
2018-05-02T07:30:50.111Z,9.30
2018-05-02T07:33:16.831Z,9.40
2018-05-02T07:35:42.806Z,9.40
2018-05-02T07:38:09.532Z,9.50
2018-05-02T07:40:35.504Z,9.50
2018-05-02T07:43:01.479Z,9.60
2018-05-02T07:45:27.456Z,9.90
2018-05-02T07:47:54.164Z,10.20
2018-05-02T07:50:20.144Z,10.20
2018-05-02T07:52:46.858Z,10.50
2018-05-02T07:55:12.822Z,10.40
2018-05-02T07:57:39.531Z,10.60
2018-05-02T08:00:05.500Z,10.60
2018-05-02T08:02:32.211Z,10.70
2018-05-02T08:04:58.182Z,10.70
2018-05-02T08:07:24.142Z,10.50
2018-05-02T08:09:50.864Z,10.40
2018-05-02T08:12:16.840Z,10.40
2018-05-02T08:14:42.810Z,10.40
2018-05-02T08:17:09.520Z,10.50
2018-05-02T08:19:36.232Z,10.70
2018-05-02T08:22:02.238Z,10.70
2018-05-02T08:24:28.187Z,10.90
2018-05-02T08:26:54.193Z,11.20
2018-05-02T08:29:20.882Z,12.40
2018-05-02T08:31:46.836Z,12.40
2018-05-02T08:34:12.803Z,12.80
2018-05-02T08:36:38.774Z,13.10
2018-05-02T08:39:04.735Z,13.10
2018-05-02T08:41:30.706Z,13.10
2018-05-02T08:43:56.678Z,13.10
2018-05-02T08:46:22.655Z,13.50
2018-05-02T08:48:49.355Z,15.00
2018-05-02T08:51:15.323Z,14.90
2018-05-02T08:53:41.295Z,15.30
2018-05-02T08:56:07.262Z,15.90
2018-05-02T08:58:33.231Z,16.50
2018-05-02T09:00:59.204Z,17.30
2018-05-02T09:03:25.171Z,17.20
2018-05-02T09:05:51.243Z,17.10
2018-05-02T09:08:17.198Z,16.80
2018-05-02T09:10:43.908Z,16.40
2018-05-02T09:13:09.879Z,16.40
2018-05-02T09:15:36.646Z,16.40
2018-05-02T09:18:02.584Z,16.40
2018-05-02T09:20:28.555Z,16.60
2018-05-02T09:22:54.525Z,16.30
2018-05-02T09:25:21.247Z,16.90
2018-05-02T09:27:47.220Z,16.80
2018-05-02T09:30:13.924Z,17.10
2018-05-02T09:32:39.896Z,17.10
2018-05-02T09:35:05.892Z,17.10
2018-05-02T09:37:31.875Z,17.00
2018-05-02T09:39:58.595Z,17.10
2018-05-02T09:42:24.570Z,17.10
2018-05-02T09:44:51.342Z,16.90
2018-05-02T09:47:17.324Z,17.00
2018-05-02T09:49:43.302Z,17.20
2018-05-02T09:52:09.370Z,17.00
2018-05-02T09:54:35.264Z,15.50
2018-05-02T09:57:02.028Z,15.10
2018-05-02T09:59:28.018Z,15.10
2018-05-02T10:01:53.999Z,15.10
2018-05-02T10:04:19.980Z,14.60
2018-05-02T10:06:45.982Z,14.30
2018-05-02T10:09:11.959Z,14.40
2018-05-02T10:11:37.943Z,14.40
2018-05-02T10:14:03.946Z,14.80
2018-05-02T10:16:30.670Z,14.60
2018-05-02T10:18:56.664Z,14.60
2018-05-02T10:21:22.639Z,14.50
2018-05-02T10:23:48.628Z,14.80
2018-05-02T10:26:14.648Z,14.70
2018-05-02T10:28:40.600Z,14.90
2018-05-02T10:31:06.586Z,14.60
2018-05-02T10:33:32.558Z,14.70
2018-05-02T10:35:59.275Z,14.90
2018-05-02T10:38:25.268Z,14.80
2018-05-02T10:40:51.242Z,14.60
2018-05-02T10:43:24.367Z,14.60
2018-05-02T10:45:50.335Z,14.50
2018-05-02T10:48:16.323Z,14.60
2018-05-02T10:50:42.302Z,14.40
2018-05-02T10:53:08.287Z,14.10
2018-05-02T10:55:34.259Z,14.40
2018-05-02T10:58:00.260Z,14.90
2018-05-02T11:00:26.236Z,15.40
2018-05-02T11:02:52.228Z,15.80
2018-05-02T11:05:18.219Z,16.10
2018-05-02T11:07:44.199Z,17.10
2018-05-02T11:10:10.171Z,17.30
2018-05-02T11:12:36.900Z,18.10
2018-05-02T11:15:02.895Z,18.00
2018-05-02T11:17:28.874Z,18.20
2018-05-02T11:19:55.603Z,17.90
2018-05-02T11:22:21.573Z,17.90
2018-05-02T11:24:48.312Z,17.40
2018-05-02T11:27:14.323Z,17.40
2018-05-02T11:29:40.311Z,17.10
2018-05-02T11:32:06.294Z,17.40
2018-05-02T11:34:32.286Z,17.30
2018-05-02T11:36:58.271Z,17.90
2018-05-02T11:39:24.255Z,18.80
2018-05-02T11:41:50.245Z,19.90
2018-05-02T11:44:16.236Z,21.00
2018-05-02T11:46:42.217Z,21.20
2018-05-02T11:49:08.199Z,21.50
2018-05-02T11:51:34.179Z,21.70
2018-05-02T11:54:00.164Z,20.90
2018-05-02T11:56:26.143Z,19.60
2018-05-02T11:58:52.127Z,18.60
2018-05-02T12:01:18.095Z,18.60
2018-05-02T12:03:44.088Z,19.40
2018-05-02T12:06:10.811Z,20.70
2018-05-02T12:08:36.783Z,20.70
2018-05-02T12:11:02.763Z,20.50
2018-05-02T12:13:28.744Z,21.10
2018-05-02T12:15:55.462Z,20.10
2018-05-02T12:18:21.455Z,20.00
2018-05-02T12:20:47.440Z,20.30
2018-05-02T12:23:13.427Z,20.80
2018-05-02T12:25:39.411Z,20.80
2018-05-02T12:28:06.931Z,19.40
2018-05-02T12:30:32.914Z,19.40
2018-05-02T12:32:58.896Z,18.80
2018-05-02T12:35:24.896Z,18.90
2018-05-02T12:37:50.847Z,19.50
2018-05-02T12:40:17.550Z,18.70
2018-05-02T12:42:44.271Z,18.70
2018-05-02T12:45:10.238Z,18.70
2018-05-02T12:47:36.199Z,18.70
2018-05-02T12:50:02.175Z,18.80
2018-05-02T12:52:28.134Z,19.40
2018-05-02T12:54:54.098Z,19.00
2018-05-02T12:57:20.059Z,19.20
2018-05-02T12:59:46.771Z,19.10
2018-05-02T13:02:12.731Z,19.10
2018-05-02T13:04:38.708Z,18.90
2018-05-02T13:07:04.698Z,18.90
2018-05-02T13:09:30.667Z,18.90
2018-05-02T13:11:56.646Z,19.10
2018-05-02T13:14:22.616Z,18.90
2018-05-02T13:16:49.329Z,18.70
2018-05-02T13:19:15.291Z,18.70
2018-05-02T13:21:41.255Z,18.20
2018-05-02T13:24:07.218Z,17.80
2018-05-02T13:26:33.191Z,17.70
2018-05-02T13:28:59.158Z,17.70
2018-05-02T13:31:25.130Z,17.60
2018-05-02T13:33:51.095Z,17.50
2018-05-02T13:36:17.091Z,17.60
2018-05-02T13:38:43.070Z,17.50
2018-05-02T13:41:09.055Z,17.50
2018-05-02T13:43:35.027Z,17.50
2018-05-02T13:46:01.023Z,17.30
2018-05-02T13:48:27.003Z,17.10
2018-05-02T13:50:52.987Z,17.00
2018-05-02T13:53:18.974Z,17.00
2018-05-02T13:55:44.959Z,16.90
2018-05-02T13:58:10.940Z,17.10
2018-05-02T14:00:36.922Z,17.10
2018-05-02T14:03:02.910Z,17.00
2018-05-02T14:05:28.891Z,16.90
2018-05-02T14:07:54.871Z,16.90
2018-05-02T14:10:20.847Z,16.70
2018-05-02T14:12:46.840Z,16.50
2018-05-02T14:15:12.812Z,16.50
2018-05-02T14:17:39.554Z,16.50
2018-05-02T14:20:06.287Z,16.50
2018-05-02T14:22:32.263Z,16.50
2018-05-02T14:24:58.251Z,16.60
2018-05-02T14:27:24.231Z,16.80
2018-05-02T14:29:50.208Z,17.20
2018-05-02T14:32:16.195Z,17.50
2018-05-02T14:34:42.186Z,17.00
2018-05-02T14:37:08.928Z,17.00
2018-05-02T14:39:34.907Z,17.00
2018-05-02T14:42:01.690Z,17.20
2018-05-02T14:44:27.668Z,17.10
2018-05-02T14:46:53.651Z,17.00
2018-05-02T14:49:19.622Z,16.60
2018-05-02T14:51:45.604Z,16.70
2018-05-02T14:54:12.327Z,16.50
2018-05-02T14:56:38.300Z,16.50
2018-05-02T14:59:04.294Z,16.60
2018-05-02T15:01:30.323Z,16.80
2018-05-02T15:03:56.324Z,17.00
2018-05-02T15:06:22.311Z,17.20
2018-05-02T15:08:48.296Z,17.50
2018-05-02T15:11:14.279Z,18.00
2018-05-02T15:13:40.259Z,18.40
2018-05-02T15:16:06.248Z,18.50
2018-05-02T15:18:32.227Z,18.30
2018-05-02T15:20:58.271Z,18.10
2018-05-02T15:23:24.267Z,17.80
2018-05-02T15:25:50.988Z,17.70
2018-05-02T15:28:16.977Z,17.60
2018-05-02T15:30:42.955Z,17.80
2018-05-02T15:33:09.699Z,17.70
2018-05-02T15:35:35.692Z,17.70
2018-05-02T15:38:02.429Z,17.50
2018-05-02T15:40:29.152Z,17.60
2018-05-02T15:42:55.168Z,17.60
2018-05-02T15:45:21.144Z,17.80
2018-05-02T15:47:47.126Z,18.00
2018-05-02T15:50:13.119Z,18.10
2018-05-02T15:52:39.099Z,18.10
2018-05-02T15:55:05.107Z,17.90
2018-05-02T15:57:31.834Z,17.50
2018-05-02T15:59:57.819Z,17.50
2018-05-02T16:02:23.790Z,17.40
2018-05-02T16:04:49.783Z,17.30
2018-05-02T16:07:15.755Z,17.30
2018-05-02T16:09:41.731Z,17.20
2018-05-02T16:12:08.515Z,17.00
2018-05-02T16:14:34.559Z,17.00
2018-05-02T16:17:00.540Z,16.80
2018-05-02T16:19:26.538Z,16.80
2018-05-02T16:21:52.514Z,16.70
2018-05-02T16:24:18.507Z,16.60
2018-05-02T16:26:44.483Z,16.60
2018-05-02T16:29:11.286Z,16.50
2018-05-02T16:31:37.267Z,16.50
2018-05-02T16:34:03.255Z,16.40
2018-05-02T16:36:29.226Z,16.40
2018-05-02T16:38:55.203Z,16.40
2018-05-02T16:41:21.291Z,16.40
2018-05-02T16:43:47.308Z,16.30
2018-05-02T16:46:13.353Z,16.20
2018-05-02T16:48:39.327Z,16.00
2018-05-02T16:51:06.115Z,15.70
2018-05-02T16:53:32.095Z,15.70
2018-05-02T16:55:58.814Z,15.60
2018-05-02T16:58:24.814Z,15.60
2018-05-02T17:00:51.527Z,15.60
2018-05-02T17:03:17.547Z,15.50
2018-05-02T17:05:50.415Z,15.50
2018-05-02T17:08:16.444Z,15.50
2018-05-02T17:10:42.483Z,15.40
2018-05-02T17:13:08.459Z,15.30
2018-05-02T17:15:34.451Z,15.30
2018-05-02T17:18:00.422Z,15.10
2018-05-02T17:20:26.399Z,15.00
2018-05-02T17:22:53.117Z,14.80
2018-05-02T17:25:19.115Z,14.70
2018-05-02T17:27:45.091Z,14.70
2018-05-02T17:30:11.098Z,14.70
2018-05-02T17:32:37.066Z,14.60
2018-05-02T17:35:03.847Z,14.40
2018-05-02T17:37:30.631Z,14.30
2018-05-02T17:39:56.599Z,14.20
2018-05-02T17:42:22.566Z,14.10
2018-05-02T17:44:49.286Z,13.90
2018-05-02T17:47:15.265Z,13.90
2018-05-02T17:49:42.019Z,13.80
2018-05-02T17:52:08.743Z,13.70
2018-05-02T17:54:34.715Z,13.70
2018-05-02T17:57:00.686Z,13.70
2018-05-02T17:59:26.666Z,13.60
2018-05-02T18:01:53.375Z,13.50
2018-05-02T18:04:19.343Z,13.50
2018-05-02T18:06:45.318Z,13.50
2018-05-02T18:09:11.395Z,13.50
2018-05-02T18:11:37.368Z,13.50
2018-05-02T18:14:04.157Z,13.40
2018-05-02T18:16:30.188Z,13.40
2018-05-02T18:18:56.099Z,13.40
2018-05-02T18:21:22.081Z,13.30
2018-05-02T18:23:48.055Z,13.20
2018-05-02T18:26:14.774Z,13.20
2018-05-02T18:28:40.748Z,13.10
2018-05-02T18:31:07.471Z,13.20
2018-05-02T18:33:33.440Z,13.10
2018-05-02T18:36:00.163Z,13.10
2018-05-02T18:38:26.162Z,13.00
2018-05-02T18:40:52.135Z,13.00
2018-05-02T18:43:18.149Z,13.00
2018-05-02T18:45:44.154Z,13.00
2018-05-02T18:48:10.115Z,12.90
2018-05-02T18:50:36.084Z,12.80
2018-05-02T18:53:02.800Z,12.70
2018-05-02T18:55:28.778Z,12.80
2018-05-02T18:57:55.494Z,12.70
2018-05-02T19:00:21.463Z,12.70
2018-05-02T19:02:48.171Z,12.60
2018-05-02T19:05:14.143Z,12.60
2018-05-02T19:07:40.868Z,12.50
2018-05-02T19:10:06.929Z,12.50
2018-05-02T19:12:33.667Z,12.50
2018-05-02T19:15:00.371Z,12.50
2018-05-02T19:17:26.377Z,12.40
2018-05-02T19:22:56.715Z,12.40
2018-05-02T19:25:28.790Z,12.40
2018-05-02T19:27:54.795Z,12.40
2018-05-02T19:30:20.813Z,12.40
2018-05-02T19:32:53.786Z,12.20
2018-05-02T19:35:19.774Z,12.20
2018-05-02T19:37:45.750Z,12.20
2018-05-02T19:40:17.930Z,12.20
2018-05-02T19:42:50.247Z,12.20
2018-05-02T19:45:16.182Z,12.20
2018-05-02T19:47:42.910Z,12.20
2018-05-02T19:50:08.919Z,12.20
2018-05-02T19:52:40.999Z,12.20
2018-05-02T19:55:07.715Z,12.10
2018-05-02T19:57:33.703Z,12.10
2018-05-02T19:59:59.688Z,12.10
2018-05-02T20:02:31.667Z,12.00
2018-05-02T20:04:57.647Z,12.00
2018-05-02T20:07:29.729Z,12.00
2018-05-02T20:10:01.960Z,11.90
2018-05-02T20:12:34.068Z,11.90
2018-05-02T20:15:00.960Z,11.80
2018-05-02T20:17:27.684Z,11.70
2018-05-02T20:19:53.668Z,11.70
2018-05-02T20:22:19.772Z,11.60
2018-05-02T20:24:45.755Z,11.60
2018-05-02T20:27:11.736Z,11.60
2018-05-02T20:29:37.711Z,11.60
2018-05-02T20:32:03.694Z,11.50
2018-05-02T20:34:29.724Z,11.50
2018-05-02T20:36:55.726Z,11.50
2018-05-02T20:39:21.707Z,11.40
2018-05-02T20:41:47.683Z,11.40
2018-05-02T20:44:13.679Z,11.30
2018-05-02T20:46:39.658Z,11.30
2018-05-02T20:49:06.387Z,11.20
2018-05-02T20:51:33.118Z,11.10
2018-05-02T20:53:59.109Z,11.10
2018-05-02T20:56:25.079Z,11.10
2018-05-02T20:58:51.058Z,11.00
2018-05-02T21:01:17.774Z,10.90
2018-05-02T21:03:43.751Z,10.90
2018-05-02T21:06:10.471Z,10.90
2018-05-02T21:08:36.454Z,10.90
2018-05-02T21:11:02.434Z,10.90
2018-05-02T21:13:28.406Z,10.90
2018-05-02T21:15:55.123Z,10.90
2018-05-02T21:18:21.101Z,10.80
2018-05-02T21:20:47.079Z,10.80
2018-05-02T21:23:13.062Z,10.80
2018-05-02T21:25:39.788Z,10.80
2018-05-02T21:28:06.522Z,10.80
2018-05-02T21:30:32.506Z,10.80
2018-05-02T21:32:58.482Z,10.80
2018-05-02T21:35:24.472Z,10.90
2018-05-02T21:37:51.194Z,10.80
2018-05-02T21:40:17.175Z,10.80
2018-05-02T21:42:43.148Z,10.80
2018-05-02T21:45:09.143Z,10.80
2018-05-02T21:47:35.120Z,10.80
2018-05-02T21:50:01.109Z,10.70
2018-05-02T21:52:27.082Z,10.70
2018-05-02T21:54:53.066Z,10.70
2018-05-02T21:57:19.791Z,10.60
2018-05-02T21:59:47.302Z,10.60
2018-05-02T22:02:13.243Z,10.60
2018-05-02T22:04:39.231Z,10.60
2018-05-02T22:07:05.207Z,10.50
2018-05-02T22:09:31.195Z,10.50
2018-05-02T22:11:57.180Z,10.50
2018-05-02T22:14:23.167Z,10.40
2018-05-02T22:16:49.155Z,10.40
2018-05-02T22:19:15.139Z,10.40
2018-05-02T22:21:41.112Z,10.30
2018-05-02T22:24:07.095Z,10.20
2018-05-02T22:26:33.075Z,10.10
2018-05-02T22:28:59.807Z,10.00
2018-05-02T22:31:26.543Z,10.00
2018-05-02T22:33:52.519Z,10.00
2018-05-02T22:36:18.510Z,10.00
2018-05-02T22:38:44.491Z,9.90
2018-05-02T22:41:10.544Z,9.90
2018-05-02T22:43:36.518Z,9.90
2018-05-02T22:46:02.515Z,9.80
2018-05-02T22:48:28.493Z,9.70
2018-05-02T22:50:54.477Z,9.70
2018-05-02T22:53:20.451Z,9.70
2018-05-02T22:55:46.434Z,9.60
2018-05-02T22:58:13.151Z,9.60
2018-05-02T23:00:39.135Z,9.50
2018-05-02T23:03:05.131Z,9.50
2018-05-02T23:05:31.109Z,9.50
2018-05-02T23:07:57.087Z,9.50
2018-05-02T23:10:23.075Z,9.50
2018-05-02T23:12:49.046Z,9.40
2018-05-02T23:15:15.039Z,9.50
2018-05-02T23:17:41.002Z,9.50
2018-05-02T23:20:06.996Z,9.50
2018-05-02T23:22:32.987Z,9.60
2018-05-02T23:24:58.963Z,9.60
2018-05-02T23:27:25.682Z,9.70
2018-05-02T23:29:51.647Z,9.60
2018-05-02T23:32:18.371Z,9.70
2018-05-02T23:34:44.346Z,9.70
2018-05-02T23:37:11.071Z,9.80
2018-05-02T23:39:37.043Z,9.80
2018-05-02T23:42:03.033Z,9.90
2018-05-02T23:44:29.008Z,10.00
2018-05-02T23:46:54.988Z,10.00
2018-05-02T23:49:20.967Z,10.10
2018-05-02T23:51:47.686Z,10.20
2018-05-02T23:54:13.770Z,10.20
2018-05-02T23:56:39.747Z,10.30
2018-05-02T23:59:05.714Z,10.30
